This is the latest recevied weather packets stored in our database for station/object HS5GDX-4. If no packets are shown the sender has not sent any weather packets the latest 10 day(s).
| Time | Temp. | Humidity | Pressure | Rain* | Wind** | Luminosity | Snow |
|---|---|---|---|---|---|---|---|
| 1778240507 | 36.11° C | 40% | 965 hPa | - | - | 0 W/m² | - |
| 1778239580 | 36.11° C | 39% | 964 hPa | - | - | 0 W/m² | - |
| 1778238651 | 36.67° C | 39% | 964 hPa | - | - | 0 W/m² | - |
| 1778237723 | 37.22° C | 36% | 964 hPa | - | - | 0 W/m² | - |
| 1778236796 | 37.22° C | 36% | 963 hPa | - | - | 0 W/m² | - |
| 1778235867 | 37.22° C | 35% | 963 hPa | - | - | 0 W/m² | - |
| 1778234939 | 37.22° C | 34% | 963 hPa | - | - | 0 W/m² | - |
| 1778234010 | 37.22° C | 34% | 963 hPa | - | - | 0 W/m² | - |
| 1778233084 | 37.22° C | 34% | 963 hPa | - | - | 0 W/m² | - |
| 1778232155 | 37.22° C | 34% | 963 hPa | - | - | 0 W/m² | - |
| 1778231227 | 37.22° C | 34% | 963 hPa | - | - | 0 W/m² | - |
| 1778230298 | 37.22° C | 34% | 963 hPa | - | - | 0 W/m² | - |
| 1778229370 | 37.22° C | 35% | 964 hPa | - | - | 0 W/m² | - |
| 1778228439 | 36.67° C | 35% | 964 hPa | - | - | 0 W/m² | - |
| 1778227511 | 37.22° C | 35% | 964 hPa | - | - | 0 W/m² | - |
| 1778226583 | 37.22° C | 34% | 965 hPa | - | - | 0 W/m² | - |
| 1778226518 | 37.22° C | 34% | 965 hPa | - | - | 0 W/m² | - |
| 1778225588 | 37.22° C | 35% | 965 hPa | - | - | 0 W/m² | - |
| 1778224660 | 36.67° C | 37% | 965 hPa | - | - | 0 W/m² | - |
| 1778223730 | 36.67° C | 37% | 965 hPa | - | - | 0 W/m² | - |
| 1778222800 | 36.11° C | 39% | 966 hPa | - | - | 0 W/m² | - |
| 1778221871 | 35.56° C | 41% | 966 hPa | - | - | 0 W/m² | - |
| 1778220943 | 35.56° C | 41% | 967 hPa | - | - | 0 W/m² | - |
| 1778220012 | 35° C | 42% | 967 hPa | - | - | 0 W/m² | - |
| 1778219083 | 33.33° C | 47% | 968 hPa | - | - | 0 W/m² | - |
* Rain since midnight (hover to see other rain measurements)
** Current wind speed in m/s (hover to see current wind gust speed)